Flight Number: EUR2285 Duration: 2:00
Departure: Madeira Funchal (LPMA) at 18:15 Distance: 642 Nm
Arrival: Porto Airport (LPPR) at 20:15 Equipment: A321

Weather Information
Aeroporto Da Madeira, Portugal (LPMA) 32-41-52N 016-46-28W Jan 23, 2018 - 04:30 AM EST / 2018.01.23 0930 UTC
Wind: from the NNE (020 degrees) at 13 MPH (11 KT):0
Visibility: greater than 7 mile(s):0
Sky conditions: partly cloudy Temperature: 60 F (16 C) Dew Point: 51 F (11 C) Relative Humidity: 72% Pressure (altimeter): 30.39 in. Hg (1029 hPa)
ob: LPMA 230930Z 02011KT 9999 SCT016 SCT030 16/11 Q1029 cycle: 9
Sunrise: 08:09 Sunset: 18:28 (UTC)

Porto / Pedras Rubras, Portugal (LPPR) 41-14N 008-41W 77M Jan 23, 2018 - 04:30 AM EST / 2018.01.23 0930 UTC
Wind: from the ESE (110 degrees) at 10 MPH (9 KT) (direction variable):0
Visibility: greater than 7 mile(s):0
Sky conditions: overcast Temperature: 50 F (10 C) Dew Point: 48 F (9 C) Relative Humidity: 93% Pressure (altimeter): 30.45 in. Hg (1031 hPa)
ob: LPPR 230930Z 11009KT 090V150 9999 OVC037 10/09 Q1031 cycle: 9
Sunrise: 07:56 Sunset: 17:36 (UTC)

TAF:2018/01/23 06:18 TAF LPPR 230500Z 2306/2406 VRB03KT 5000 BR SCT006 BKN030 TEMPO 2306/2308 1200 PRFG BKN001 BECMG 2309/2311 9999 NSW SCT030 BECMG 2313/2316 33007KT BECMG 2320/2323 VRB03KT 5000 BR SCT002 BKN006

Previous Pireps for this route
Date Aircraft Flight time Fuel used Landing rate On time
2013-09-05A32101.4311937-451No
2013-10-03A32101.4911876-68Yes
2014-10-10A32101.4010109-231Yes
2014-10-19A32101.4410265-178No
2015-01-01A32101.5010644-155Yes
2015-10-23A32101.4910185-219Yes
(pireps marked green are flown by you)

Route map